Search for airport 
image banner adimage banner adimage banner ad
image banner ad

88PA - Mc Coy

Located in Clinton, United States

ICAO - 88PA, IATA -

Data provided by Airmate  

General information

Coordinates: N40°32'21" W80°24'47"
Elevation is 1200 feet MSL.
Magnetic variation is -07° East
View others Airports in Pennsylvania

Operational data

Special qualification required
Current time UTC:
Current local time:
Weather at : KPIT - Pittsburgh Intl ( 16 km )
METAR: KPIT 182151Z VRB03KT 10SM SCT250 25/05 A3028 RMK AO2 SLP260 T02500050
TAF: KPIT 182056Z 1821/1924 09004KT P6SM SCT250 FM191500 17004KT P6SM SCT040
View NOTAMs / SUP AIP / TFR affecting this airport [VIEW]
Communications frequencies: [VIEW]

Runways:

RWY identifierQFULength (ft)Width (ft)SurfaceLDA (ft)
141300100GRASS
321300100GRASS

Airport contact information

Address: Clinton United States

Satellite view of 88PA